F\v Tenia — FPMH — position and weather

sailwx.info

Track history (hours):
 
Tides and Currents Weather Stations Pressure Air Temp Water Temp Dewpoint Dewpoint Depression Visibility Wind Speed Wind Dir Waves Ship Positions

F\v Tenia

Last reported at 2015-Apr-18 18:04 UTC. Time now 2015-Apr-19 22:53 UTC.
Position N 44°43' W 002°04'.

Length 22 m; draft 4 m.

Type: Fishing. MMSI: 227575000.

Date/timePositionNaut miles runAvg speedWind from/ knotsBaromVisibWave heightAir tempDewpointWater temp
2015-Apr-18 18:04N 44°43' W 002°04'1 1.0
2015-Apr-18 17:33N 44°43' W 002°03'1 1.0
2015-Apr-18 16:28N 44°42' W 002°02'4 1.0
2015-Apr-18 12:33N 44°38' W 002°01'1 1.0
2015-Apr-18 11:31N 44°37' W 002°02'1 0.2
2015-Apr-18 07:19N 44°37' W 002°03'7 1.1
2015-Apr-18 01:11N 44°44' W 002°05'6 0.2
2015-Apr-16 13:23N 44°38' W 002°01'1 0.6
2015-Apr-16 12:33N 44°38' W 002°01'1 0.8
2015-Apr-16 11:33N 44°38' W 002°02'8 0.4
2015-Apr-15 15:33N 44°45' W 002°06'0 0.4
2015-Apr-15 14:33N 44°46' W 002°06'0 0.0
2015-Apr-15 09:14N 44°45' W 002°06'1 0.4
2015-Apr-15 07:33N 44°45' W 002°06'1 0.9
2015-Apr-15 06:33N 44°46' W 002°06'1 1.1
2015-Apr-15 05:34N 44°45' W 002°07'1 0.4
2015-Apr-15 04:19N 44°44' W 002°06'8 0.4
2015-Apr-14 09:20N 44°37' W 002°04'1 1.3
2015-Apr-14 08:32N 44°38' W 002°03'0 0.4
2015-Apr-14 07:32N 44°38' W 002°03'1 0.7
2015-Apr-14 06:13N 44°38' W 002°02'3 1.6
2015-Apr-14 04:23N 44°36' W 002°04'2 2.0
2015-Apr-14 03:30N 44°37' W 002°03'5 4.9
2015-Apr-14 02:33N 44°42' W 002°02'3 2.9
2015-Apr-14 01:33N 44°44' W 002°04'5 0.4
2015-Apr-13 15:18N 44°40' W 002°01'1 0.8
2015-Apr-13 14:27N 44°39' W 002°01'1 0.6
2015-Apr-13 13:25N 44°39' W 002°01'1 0.5
2015-Apr-13 12:27N 44°38' W 002°01'1 0.8
2015-Apr-13 11:20N 44°38' W 002°02'1 1.1
2015-Apr-13 10:33N 44°37' W 002°03'1 0.5
2015-Apr-13 08:33N 44°36' W 002°03'0 0.3
2015-Apr-13 07:29N 44°37' W 002°03'0 0.3
2015-Apr-13 06:29N 44°37' W 002°03'0 0.3
2015-Apr-13 05:27N 44°37' W 002°03'0 0.2
2015-Apr-13 04:33N 44°37' W 002°03'1 1.2
2015-Apr-13 03:22N 44°38' W 002°01'7 2.4
2015-Apr-13 00:11N 44°38' W 002°12'  
2015-Apr-09 09:33N 45°21' W 002°28'1 0.9
2015-Apr-09 08:32N 45°21' W 002°29'1 1.0
2015-Apr-09 07:33N 45°21' W 002°28'1 0.8
2015-Apr-09 06:30N 45°21' W 002°27'  
Track history (hours):
 
Tides and Currents Weather Stations Pressure Air Temp Water Temp Dewpoint Dewpoint Depression Visibility Wind Speed Wind Dir Waves Ship Positions

F\v Tenia

Last reported at 2015-Apr-18 18:04 UTC. Time now 2015-Apr-19 22:53 UTC.
Position N 44°43' W 002°04'.

Length 22 m; draft 4 m.

Type: Fishing. MMSI: 227575000.

Date/timePositionNaut miles runAvg speedWind from/ knotsBaromVisibWave heightAir tempDewpointWater temp
2015-Apr-18 18:04N 44°43' W 002°04'1 1.0
2015-Apr-18 17:33N 44°43' W 002°03'1 1.0
2015-Apr-18 16:28N 44°42' W 002°02'4 1.0
2015-Apr-18 12:33N 44°38' W 002°01'1 1.0
2015-Apr-18 11:31N 44°37' W 002°02'1 0.2
2015-Apr-18 07:19N 44°37' W 002°03'7 1.1
2015-Apr-18 01:11N 44°44' W 002°05'6 0.2
2015-Apr-16 13:23N 44°38' W 002°01'1 0.6
2015-Apr-16 12:33N 44°38' W 002°01'1 0.8
2015-Apr-16 11:33N 44°38' W 002°02'8 0.4
2015-Apr-15 15:33N 44°45' W 002°06'0 0.4
2015-Apr-15 14:33N 44°46' W 002°06'0 0.0
2015-Apr-15 09:14N 44°45' W 002°06'1 0.4
2015-Apr-15 07:33N 44°45' W 002°06'1 0.9
2015-Apr-15 06:33N 44°46' W 002°06'1 1.1
2015-Apr-15 05:34N 44°45' W 002°07'1 0.4
2015-Apr-15 04:19N 44°44' W 002°06'8 0.4
2015-Apr-14 09:20N 44°37' W 002°04'1 1.3
2015-Apr-14 08:32N 44°38' W 002°03'0 0.4
2015-Apr-14 07:32N 44°38' W 002°03'1 0.7
2015-Apr-14 06:13N 44°38' W 002°02'3 1.6
2015-Apr-14 04:23N 44°36' W 002°04'2 2.0
2015-Apr-14 03:30N 44°37' W 002°03'5 4.9
2015-Apr-14 02:33N 44°42' W 002°02'3 2.9
2015-Apr-14 01:33N 44°44' W 002°04'5 0.4
2015-Apr-13 15:18N 44°40' W 002°01'1 0.8
2015-Apr-13 14:27N 44°39' W 002°01'1 0.6
2015-Apr-13 13:25N 44°39' W 002°01'1 0.5
2015-Apr-13 12:27N 44°38' W 002°01'1 0.8
2015-Apr-13 11:20N 44°38' W 002°02'1 1.1
2015-Apr-13 10:33N 44°37' W 002°03'1 0.5
2015-Apr-13 08:33N 44°36' W 002°03'0 0.3
2015-Apr-13 07:29N 44°37' W 002°03'0 0.3
2015-Apr-13 06:29N 44°37' W 002°03'0 0.3
2015-Apr-13 05:27N 44°37' W 002°03'0 0.2
2015-Apr-13 04:33N 44°37' W 002°03'1 1.2
2015-Apr-13 03:22N 44°38' W 002°01'7 2.4
2015-Apr-13 00:11N 44°38' W 002°12'  
2015-Apr-09 09:33N 45°21' W 002°28'1 0.9
2015-Apr-09 08:32N 45°21' W 002°29'1 1.0
2015-Apr-09 07:33N 45°21' W 002°28'1 0.8
2015-Apr-09 06:30N 45°21' W 002°27'  

Dump ship's entire track history